Terminal Aerodrome Forecast
Issued by NWS Greer, SC

Home | Current Version | Previous Version | Text Only | Print | Product List | Glossary On
Versions: 1 2 3 4 5 6 7 8 9 10 11 12 13 14 15 16 17 18 19 20 21 22 23 24
000
FTUS42 KGSP 050526
TAFGSP
TAF
KGSP 050526Z 0506/0606 22008G16KT P6SM VCSH SCT025 BKN060
      TEMPO 0506/0510 6SM -SHRA BR SCT010 BKN025
     FM051100 21006KT 4SM -RA BR OVC005
     FM051600 35008KT 3SM -RA BR OVC008
     FM060000 02008KT 4SM BR OVC008
     FM060200 02008KT P6SM OVC020=

USA.gov is the U.S. government's official web portal to all federal, state and local government web resources and services.